createdAt,value
2018-07-31T00:01:37.107Z,99.90
2018-07-31T00:04:04.824Z,99.90
2018-07-31T00:06:31.709Z,99.90
2018-07-31T00:08:59.383Z,99.90
2018-07-31T00:11:26.975Z,99.90
2018-07-31T00:13:53.928Z,99.90
2018-07-31T00:16:20.823Z,99.90
2018-07-31T00:18:48.552Z,99.90
2018-07-31T00:21:15.474Z,99.90
2018-07-31T00:23:42.448Z,99.90
2018-07-31T00:26:09.351Z,99.90
2018-07-31T00:28:36.372Z,99.90
2018-07-31T00:31:03.286Z,99.90
2018-07-31T00:33:30.205Z,99.90
2018-07-31T00:35:57.096Z,99.90
2018-07-31T00:38:24.037Z,99.90
2018-07-31T00:40:50.980Z,99.90
2018-07-31T00:43:17.964Z,99.90
2018-07-31T00:45:44.835Z,99.90
2018-07-31T00:48:11.780Z,99.90
2018-07-31T00:50:38.647Z,99.90
2018-07-31T00:53:05.628Z,99.90
2018-07-31T00:55:32.552Z,99.90
2018-07-31T00:57:59.461Z,99.90
2018-07-31T01:00:26.340Z,99.90
2018-07-31T01:02:53.207Z,99.90
2018-07-31T01:05:20.118Z,99.90
2018-07-31T01:07:47.035Z,99.90
2018-07-31T01:10:13.949Z,99.90
2018-07-31T01:12:41.552Z,99.90
2018-07-31T01:15:08.482Z,99.90
2018-07-31T01:17:35.426Z,99.90
2018-07-31T01:20:02.390Z,99.90
2018-07-31T01:22:29.319Z,99.90
2018-07-31T01:24:56.292Z,99.90
2018-07-31T01:27:23.163Z,99.90
2018-07-31T01:29:50.140Z,99.90
2018-07-31T01:32:17.056Z,99.90
2018-07-31T01:34:44.740Z,99.90
2018-07-31T01:37:11.628Z,99.90
2018-07-31T01:39:38.560Z,99.90
2018-07-31T01:42:05.479Z,99.90
2018-07-31T01:44:32.484Z,99.90
2018-07-31T01:46:59.358Z,99.90
2018-07-31T01:49:27.009Z,99.90
2018-07-31T01:51:53.901Z,99.90
2018-07-31T01:54:20.863Z,99.90
2018-07-31T01:56:47.780Z,99.90
2018-07-31T01:59:14.746Z,99.90
2018-07-31T02:01:41.629Z,99.90
2018-07-31T02:04:08.557Z,99.90
2018-07-31T02:06:35.444Z,99.90
2018-07-31T02:09:02.510Z,99.90
2018-07-31T02:11:29.371Z,99.90
2018-07-31T02:13:56.382Z,99.90
2018-07-31T02:16:23.262Z,99.90
2018-07-31T02:18:50.202Z,99.90
2018-07-31T02:21:17.072Z,99.90
2018-07-31T02:23:43.996Z,99.90
2018-07-31T02:26:10.868Z,99.90
2018-07-31T02:28:37.804Z,99.90
2018-07-31T02:31:04.770Z,99.90
2018-07-31T02:33:31.637Z,99.90
2018-07-31T02:35:59.372Z,99.90
2018-07-31T02:38:26.252Z,99.90
2018-07-31T02:40:53.264Z,99.90
2018-07-31T02:43:20.121Z,99.90
2018-07-31T02:45:47.028Z,99.90
2018-07-31T02:48:13.934Z,99.90
2018-07-31T02:50:40.873Z,99.90
2018-07-31T02:53:07.784Z,99.90
2018-07-31T02:55:34.740Z,99.90
2018-07-31T02:58:01.693Z,99.90
2018-07-31T03:00:28.626Z,99.90
2018-07-31T03:02:55.495Z,99.90
2018-07-31T03:05:22.485Z,99.90
2018-07-31T03:07:50.005Z,99.90
2018-07-31T03:10:16.927Z,99.90
2018-07-31T03:12:43.801Z,99.90
2018-07-31T03:15:11.478Z,99.90
2018-07-31T03:17:38.432Z,99.90
2018-07-31T03:20:05.420Z,99.90
2018-07-31T03:22:32.279Z,99.90
2018-07-31T03:24:59.975Z,99.90
2018-07-31T03:27:26.864Z,99.90
2018-07-31T03:29:54.357Z,99.90
2018-07-31T03:32:21.274Z,99.90
2018-07-31T03:34:48.197Z,99.90
2018-07-31T03:37:15.141Z,99.90
2018-07-31T03:39:42.047Z,99.90
2018-07-31T03:42:09.710Z,99.90
2018-07-31T03:44:37.383Z,99.90
2018-07-31T03:47:04.263Z,99.90
2018-07-31T03:49:31.187Z,99.90
2018-07-31T03:51:58.029Z,99.90
2018-07-31T03:54:24.939Z,99.90
2018-07-31T03:56:52.612Z,99.90
2018-07-31T03:59:19.493Z,99.90
2018-07-31T04:01:46.455Z,99.90
2018-07-31T04:04:13.336Z,99.90
2018-07-31T04:06:40.999Z,99.90
2018-07-31T04:09:08.684Z,99.90
2018-07-31T04:11:35.600Z,99.90
2018-07-31T04:14:02.551Z,99.90
2018-07-31T04:16:30.207Z,99.90
2018-07-31T04:18:57.102Z,99.90
2018-07-31T04:21:26.694Z,99.90
2018-07-31T04:23:56.334Z,99.90
2018-07-31T04:26:28.413Z,99.90
2018-07-31T04:29:04.145Z,99.90
2018-07-31T04:31:43.425Z,99.90
2018-07-31T04:34:18.261Z,99.90
2018-07-31T04:36:47.198Z,99.90
2018-07-31T04:39:17.688Z,99.90
2018-07-31T04:41:48.598Z,99.90
2018-07-31T04:44:22.674Z,99.90
2018-07-31T04:46:51.251Z,99.90
2018-07-31T04:49:20.717Z,99.90
2018-07-31T04:51:50.998Z,99.90
2018-07-31T04:54:20.492Z,99.90
2018-07-31T04:56:51.196Z,99.90
2018-07-31T04:59:26.992Z,99.90
2018-07-31T05:01:57.487Z,99.90
2018-07-31T05:04:24.508Z,96.90
2018-07-31T05:06:51.445Z,95.00
2018-07-31T05:09:19.359Z,92.10
2018-07-31T05:11:47.408Z,87.50
2018-07-31T05:14:15.005Z,77.30
2018-07-31T05:16:43.140Z,77.20
2018-07-31T05:19:10.230Z,74.80
2018-07-31T05:21:37.189Z,70.80
2018-07-31T05:24:04.380Z,71.60
2018-07-31T05:26:32.085Z,79.00
2018-07-31T05:28:59.786Z,79.00
2018-07-31T05:31:27.366Z,79.40
2018-07-31T05:33:55.071Z,75.30
2018-07-31T05:36:22.053Z,75.30
2018-07-31T05:38:48.996Z,71.10
2018-07-31T05:41:19.219Z,71.40
2018-07-31T05:43:47.774Z,72.70
2018-07-31T05:46:15.726Z,73.50
2018-07-31T05:48:43.106Z,76.80
2018-07-31T05:51:10.315Z,78.80
2018-07-31T05:53:37.932Z,84.40
2018-07-31T05:56:04.968Z,84.30
2018-07-31T05:58:32.573Z,86.50
2018-07-31T06:01:00.420Z,87.70
2018-07-31T06:03:29.055Z,89.70
2018-07-31T06:05:56.376Z,90.40
2018-07-31T06:08:23.225Z,87.50
2018-07-31T06:10:50.226Z,84.30
2018-07-31T06:13:17.877Z,82.50
2018-07-31T06:15:44.783Z,82.10
2018-07-31T06:18:12.284Z,84.80
2018-07-31T06:20:39.155Z,85.80
2018-07-31T06:23:07.317Z,88.30
2018-07-31T06:25:34.237Z,89.90
2018-07-31T06:28:01.260Z,90.50
2018-07-31T06:30:28.264Z,90.90
2018-07-31T06:32:56.754Z,91.50
2018-07-31T06:35:23.758Z,91.10
2018-07-31T06:37:52.654Z,91.00
2018-07-31T06:40:19.575Z,90.90
2018-07-31T06:42:47.299Z,90.80
2018-07-31T06:45:16.793Z,90.80
2018-07-31T06:47:43.966Z,90.60
2018-07-31T06:50:16.176Z,90.00
2018-07-31T06:52:44.168Z,91.30
2018-07-31T06:55:15.566Z,91.20
2018-07-31T06:57:52.291Z,90.90
2018-07-31T07:00:28.484Z,90.90
2018-07-31T07:03:01.223Z,91.80
2018-07-31T07:05:41.074Z,91.70
2018-07-31T07:08:16.071Z,91.80
2018-07-31T07:10:43.787Z,91.70
2018-07-31T07:13:25.543Z,91.70
2018-07-31T07:18:31.025Z,91.30
2018-07-31T07:26:27.861Z,90.90
2018-07-31T07:29:07.747Z,90.90
2018-07-31T07:31:52.409Z,91.10
2018-07-31T07:34:29.417Z,90.80
2018-07-31T07:39:51.339Z,89.90
2018-07-31T07:45:18.616Z,89.10
2018-07-31T07:47:58.130Z,90.70
2018-07-31T07:50:37.548Z,89.90
2018-07-31T07:53:18.059Z,89.00
2018-07-31T07:55:57.549Z,86.30
2018-07-31T07:58:38.024Z,84.40
2018-07-31T08:01:17.230Z,82.90
2018-07-31T08:04:02.610Z,80.30
2018-07-31T08:06:45.185Z,81.00
2018-07-31T08:12:12.045Z,81.70
2018-07-31T08:14:56.514Z,81.70
2018-07-31T08:17:38.427Z,80.70
2018-07-31T08:23:06.416Z,82.80
2018-07-31T08:28:28.265Z,75.40
2018-07-31T08:36:38.951Z,59.70
2018-07-31T08:39:24.904Z,56.70
2018-07-31T08:44:36.431Z,52.10
2018-07-31T08:47:09.666Z,49.90
2018-07-31T08:49:52.018Z,48.40
2018-07-31T08:52:31.072Z,46.00
2018-07-31T08:55:10.721Z,45.20
2018-07-31T08:57:48.033Z,43.90
2018-07-31T09:00:17.364Z,46.60
2018-07-31T09:02:57.100Z,45.50
2018-07-31T09:05:34.468Z,46.10
2018-07-31T09:08:12.956Z,45.80
2018-07-31T09:10:53.764Z,45.70
2018-07-31T09:13:31.865Z,45.70
2018-07-31T09:16:08.155Z,44.70
2018-07-31T09:18:49.647Z,45.30
2018-07-31T09:23:57.176Z,46.40
2018-07-31T09:26:24.063Z,46.90
2018-07-31T09:28:51.029Z,47.90
2018-07-31T09:31:17.916Z,46.30
2018-07-31T09:33:44.848Z,46.50
2018-07-31T09:36:11.809Z,45.50
2018-07-31T09:38:38.756Z,46.90
2018-07-31T09:41:13.108Z,44.50
2018-07-31T09:43:40.475Z,44.40
2018-07-31T09:46:11.572Z,44.10
2018-07-31T09:48:40.262Z,45.30
2018-07-31T09:51:13.832Z,44.80
2018-07-31T09:53:53.177Z,43.90
2018-07-31T09:56:30.692Z,43.90
2018-07-31T09:59:09.245Z,43.30
2018-07-31T10:01:43.244Z,42.70
2018-07-31T10:04:22.185Z,42.60
2018-07-31T10:07:02.888Z,41.50
2018-07-31T10:09:39.492Z,43.00
2018-07-31T10:12:07.880Z,41.90
2018-07-31T10:14:35.822Z,43.00
2018-07-31T10:17:15.776Z,43.00
2018-07-31T10:19:53.296Z,42.10
2018-07-31T10:22:33.932Z,42.40
2018-07-31T10:25:10.927Z,42.20
2018-07-31T10:27:49.198Z,42.70
2018-07-31T10:30:30.555Z,42.80
2018-07-31T10:33:04.930Z,43.10
2018-07-31T10:35:43.877Z,43.30
2018-07-31T10:38:16.488Z,42.60
2018-07-31T10:40:44.328Z,42.40
2018-07-31T10:43:11.252Z,42.50
2018-07-31T10:45:45.876Z,42.80
2018-07-31T10:48:13.067Z,43.10
2018-07-31T10:50:41.052Z,42.50
2018-07-31T10:53:07.991Z,42.80
2018-07-31T10:55:36.081Z,42.40
2018-07-31T10:58:03.035Z,41.60
2018-07-31T11:00:35.503Z,42.00
2018-07-31T11:03:08.764Z,41.70
2018-07-31T11:05:45.790Z,41.70
2018-07-31T11:08:25.999Z,39.50
2018-07-31T11:11:02.201Z,38.60
2018-07-31T11:16:22.671Z,40.00
2018-07-31T11:19:03.872Z,41.70
2018-07-31T11:21:40.794Z,41.10
2018-07-31T11:24:20.808Z,41.00
2018-07-31T11:27:02.647Z,40.80
2018-07-31T11:29:43.562Z,40.60
2018-07-31T11:32:24.890Z,40.50
2018-07-31T11:35:04.377Z,41.00
2018-07-31T11:37:43.522Z,40.90
2018-07-31T11:40:11.091Z,40.60
2018-07-31T11:42:39.879Z,40.40
2018-07-31T11:45:19.054Z,40.40
2018-07-31T11:47:48.810Z,41.20
2018-07-31T11:50:21.184Z,40.00
2018-07-31T11:53:00.730Z,40.00
2018-07-31T11:55:41.845Z,39.80
2018-07-31T11:58:22.522Z,39.80
2018-07-31T12:00:59.461Z,40.50
2018-07-31T12:03:37.268Z,39.80
2018-07-31T12:06:13.628Z,40.00
2018-07-31T12:08:48.529Z,40.00
2018-07-31T12:11:25.772Z,40.30
2018-07-31T12:14:00.751Z,40.00
2018-07-31T12:16:35.651Z,40.10
2018-07-31T12:19:11.536Z,40.20
2018-07-31T12:21:39.439Z,39.50
2018-07-31T12:24:07.065Z,39.60
2018-07-31T12:26:37.604Z,39.60
2018-07-31T12:29:04.541Z,39.60
2018-07-31T12:31:33.371Z,39.90
2018-07-31T12:34:01.616Z,40.10
2018-07-31T12:36:28.896Z,40.00
2018-07-31T12:38:56.520Z,40.80
2018-07-31T12:41:23.499Z,40.80
2018-07-31T12:43:51.159Z,40.40
2018-07-31T12:46:18.831Z,40.30
2018-07-31T12:48:46.433Z,40.90
2018-07-31T12:51:13.402Z,41.40
2018-07-31T12:53:44.406Z,41.50
2018-07-31T12:56:13.145Z,42.00
2018-07-31T12:58:43.924Z,42.10
2018-07-31T13:01:13.692Z,41.60
2018-07-31T13:03:41.407Z,41.30
2018-07-31T13:06:09.333Z,41.20
2018-07-31T13:08:37.064Z,40.70
2018-07-31T13:11:04.054Z,40.60
2018-07-31T13:13:31.675Z,41.40
2018-07-31T13:16:03.827Z,40.80
2018-07-31T13:18:30.676Z,40.70
2018-07-31T13:20:57.606Z,40.30
2018-07-31T13:23:24.461Z,39.90
2018-07-31T13:25:58.348Z,40.40
2018-07-31T13:28:25.244Z,40.00
2018-07-31T13:30:52.252Z,39.80
2018-07-31T13:33:19.136Z,40.40
2018-07-31T13:35:46.076Z,40.70
2018-07-31T13:38:13.404Z,41.20
2018-07-31T13:40:40.392Z,41.20
2018-07-31T13:43:07.321Z,40.90
2018-07-31T13:45:34.331Z,41.10
2018-07-31T13:48:01.193Z,41.40
2018-07-31T13:50:28.142Z,41.30
2018-07-31T13:52:55.036Z,41.30
2018-07-31T13:55:22.722Z,41.80
2018-07-31T13:57:49.604Z,41.80
2018-07-31T14:00:17.241Z,42.00
2018-07-31T14:02:45.081Z,42.30
2018-07-31T14:05:16.543Z,41.90
2018-07-31T14:07:43.757Z,41.90
2018-07-31T14:10:10.646Z,41.40
2018-07-31T14:12:37.619Z,41.70
2018-07-31T14:15:05.159Z,41.00
2018-07-31T14:17:32.868Z,41.40
2018-07-31T14:19:59.721Z,41.60
2018-07-31T14:22:31.694Z,41.80
2018-07-31T14:25:04.771Z,41.70
2018-07-31T14:27:40.674Z,42.10
2018-07-31T14:30:15.150Z,42.60
2018-07-31T14:32:42.193Z,41.90
2018-07-31T14:35:19.500Z,41.80
2018-07-31T14:38:01.167Z,41.80
2018-07-31T14:40:42.184Z,42.10
2018-07-31T14:45:55.633Z,41.70
2018-07-31T14:48:25.308Z,41.70
2018-07-31T14:50:55.342Z,41.30
2018-07-31T14:53:23.078Z,41.30
2018-07-31T14:55:49.988Z,41.20
2018-07-31T14:58:18.188Z,41.80
2018-07-31T15:00:52.283Z,42.20
2018-07-31T15:03:32.817Z,42.70
2018-07-31T15:06:17.555Z,42.80
2018-07-31T15:08:54.551Z,42.70
2018-07-31T15:11:36.867Z,43.00
2018-07-31T15:14:17.893Z,43.00
2018-07-31T15:17:00.395Z,42.80
2018-07-31T15:19:28.253Z,42.80
2018-07-31T15:21:56.106Z,42.30
2018-07-31T15:24:29.661Z,42.10
2018-07-31T15:32:41.958Z,42.00
2018-07-31T15:35:22.113Z,42.50
2018-07-31T15:37:50.097Z,43.00
2018-07-31T15:40:16.976Z,43.20
2018-07-31T15:42:44.716Z,44.20
2018-07-31T15:45:12.198Z,44.10
2018-07-31T15:47:44.605Z,45.20
2018-07-31T15:53:02.759Z,44.70
2018-07-31T15:55:35.467Z,45.10
2018-07-31T15:58:08.042Z,45.50
2018-07-31T16:03:33.907Z,46.70
2018-07-31T16:06:11.854Z,48.30
2018-07-31T16:11:37.583Z,51.80
2018-07-31T16:14:09.869Z,56.40
2018-07-31T16:16:38.894Z,56.20
2018-07-31T16:21:51.375Z,56.70
2018-07-31T16:24:29.601Z,57.90
2018-07-31T16:27:12.218Z,57.40
2018-07-31T16:29:51.974Z,57.20
2018-07-31T16:35:14.277Z,52.80
2018-07-31T16:40:40.380Z,53.50
2018-07-31T16:45:53.602Z,52.30
2018-07-31T16:48:33.623Z,52.40
2018-07-31T16:51:10.648Z,51.10
2018-07-31T16:56:29.699Z,50.90
2018-07-31T16:58:58.009Z,50.90
2018-07-31T17:04:17.916Z,53.00
2018-07-31T17:09:33.918Z,51.30
2018-07-31T17:12:21.498Z,52.60
2018-07-31T17:14:54.729Z,51.20
2018-07-31T17:17:32.170Z,50.00
2018-07-31T17:22:50.192Z,49.10
2018-07-31T17:25:27.978Z,50.40
2018-07-31T17:27:56.425Z,50.50
2018-07-31T17:30:23.321Z,50.50
2018-07-31T17:32:50.317Z,49.30
2018-07-31T17:35:17.230Z,49.20
2018-07-31T17:37:44.149Z,49.10
2018-07-31T17:40:11.068Z,51.50
2018-07-31T17:42:38.092Z,49.90
2018-07-31T17:45:05.825Z,50.80
2018-07-31T17:47:37.127Z,50.80
2018-07-31T17:50:15.817Z,51.30
2018-07-31T17:52:56.307Z,52.10
2018-07-31T17:55:36.443Z,51.70
2018-07-31T17:58:18.536Z,52.80
2018-07-31T18:01:00.380Z,52.30
2018-07-31T18:08:54.233Z,53.30
2018-07-31T18:11:21.183Z,52.80
2018-07-31T18:13:48.158Z,52.70
2018-07-31T18:16:15.065Z,53.40
2018-07-31T18:18:42.017Z,54.60
2018-07-31T18:21:08.955Z,55.40
2018-07-31T18:23:35.968Z,56.70
2018-07-31T18:26:02.849Z,57.50
2018-07-31T18:28:30.626Z,59.10
2018-07-31T18:30:59.480Z,60.10
2018-07-31T18:33:29.640Z,60.90
2018-07-31T18:35:56.859Z,61.70
2018-07-31T18:38:29.308Z,62.10
2018-07-31T18:40:56.334Z,62.10
2018-07-31T18:43:23.402Z,62.20
2018-07-31T18:45:51.449Z,63.30
2018-07-31T18:48:18.329Z,63.20
2018-07-31T18:50:46.060Z,64.50
2018-07-31T18:53:20.856Z,64.50
2018-07-31T18:55:48.357Z,65.30
2018-07-31T18:58:15.234Z,65.90
2018-07-31T19:00:42.177Z,67.90
2018-07-31T19:03:09.052Z,68.00
2018-07-31T19:05:36.043Z,69.10
2018-07-31T19:08:02.922Z,69.60
2018-07-31T19:10:29.924Z,70.00
2018-07-31T19:12:56.805Z,71.40
2018-07-31T19:15:23.777Z,71.60
2018-07-31T19:17:50.656Z,72.40
2018-07-31T19:20:18.496Z,74.10
2018-07-31T19:23:18.137Z,74.70
2018-07-31T19:32:23.444Z,80.00
2018-07-31T19:37:53.565Z,83.80
2018-07-31T19:40:51.745Z,86.40
2018-07-31T19:43:19.812Z,87.30
2018-07-31T19:45:47.378Z,89.10
2018-07-31T19:48:22.215Z,90.70
2018-07-31T19:50:50.639Z,89.60
2018-07-31T19:53:29.631Z,88.70
2018-07-31T19:55:59.179Z,90.10
2018-07-31T19:58:38.121Z,90.10
2018-07-31T20:01:19.421Z,90.50
2018-07-31T20:06:48.816Z,91.00
2018-07-31T20:09:32.373Z,91.00
2018-07-31T20:12:15.260Z,91.30
2018-07-31T20:15:00.821Z,92.10
2018-07-31T20:17:42.304Z,92.10
2018-07-31T20:20:25.052Z,90.60
2018-07-31T20:23:08.045Z,90.50
2018-07-31T20:25:51.498Z,90.10
2018-07-31T20:28:37.195Z,88.90
2018-07-31T20:31:18.959Z,88.80
2018-07-31T20:34:00.994Z,88.80
2018-07-31T20:39:28.965Z,88.30
2018-07-31T20:42:14.175Z,88.30
2018-07-31T20:44:58.010Z,87.80
2018-07-31T20:47:40.420Z,87.70
2018-07-31T20:50:22.285Z,88.20
2018-07-31T20:53:02.412Z,88.10
2018-07-31T20:55:30.202Z,87.70
2018-07-31T20:57:57.212Z,87.10
2018-07-31T21:00:24.125Z,87.40
2018-07-31T21:03:02.290Z,87.20
2018-07-31T21:05:43.234Z,87.00
2018-07-31T21:08:16.691Z,87.80
2018-07-31T21:10:57.872Z,88.30
2018-07-31T21:13:38.209Z,88.60
2018-07-31T21:18:50.569Z,90.10
2018-07-31T21:21:17.501Z,90.10
2018-07-31T21:23:57.955Z,90.50
2018-07-31T21:26:41.635Z,90.40
2018-07-31T21:29:09.396Z,90.70
2018-07-31T21:31:36.328Z,90.80
2018-07-31T21:34:08.746Z,91.10
2018-07-31T21:36:36.405Z,91.40
2018-07-31T21:39:07.493Z,91.10
2018-07-31T21:41:34.518Z,91.10
2018-07-31T21:44:05.636Z,91.10
2018-07-31T21:46:32.594Z,91.30
2018-07-31T21:49:12.502Z,91.40
2018-07-31T21:51:41.185Z,91.70
2018-07-31T21:54:08.044Z,92.30
2018-07-31T21:56:35.053Z,93.00
2018-07-31T21:59:02.017Z,93.10
2018-07-31T22:01:28.948Z,93.60
2018-07-31T22:04:09.893Z,93.70
2018-07-31T22:06:37.597Z,94.00
2018-07-31T22:09:16.752Z,94.20
2018-07-31T22:11:43.716Z,94.60
2018-07-31T22:14:19.536Z,94.70
2018-07-31T22:16:46.456Z,94.80
2018-07-31T22:19:13.309Z,94.90
2018-07-31T22:21:45.032Z,94.90
2018-07-31T22:24:12.645Z,95.20
2018-07-31T22:26:39.572Z,95.20
2018-07-31T22:29:13.275Z,95.20
2018-07-31T22:31:41.119Z,95.10
2018-07-31T22:34:08.720Z,95.10
2018-07-31T22:36:35.748Z,95.10
2018-07-31T22:39:02.781Z,95.20
2018-07-31T22:41:29.891Z,95.10
2018-07-31T22:43:56.800Z,95.20
2018-07-31T22:46:23.751Z,95.10
2018-07-31T22:48:50.610Z,95.10
2018-07-31T22:51:17.581Z,95.20
2018-07-31T22:53:44.445Z,95.10
2018-07-31T22:56:11.375Z,95.10
2018-07-31T22:58:41.997Z,95.60
2018-07-31T23:01:08.890Z,95.40
2018-07-31T23:03:35.856Z,95.50
2018-07-31T23:06:02.785Z,95.50
2018-07-31T23:08:29.814Z,95.50
2018-07-31T23:10:56.725Z,95.60
2018-07-31T23:13:23.669Z,95.60
2018-07-31T23:15:50.540Z,95.50
2018-07-31T23:18:17.465Z,95.70
2018-07-31T23:20:44.377Z,95.80
2018-07-31T23:23:11.305Z,95.90
2018-07-31T23:25:38.210Z,96.00
2018-07-31T23:28:05.161Z,95.80
2018-07-31T23:30:32.050Z,96.00
2018-07-31T23:32:58.996Z,96.00
2018-07-31T23:35:25.881Z,96.10
2018-07-31T23:37:52.833Z,96.10
2018-07-31T23:40:19.724Z,96.10
2018-07-31T23:42:46.720Z,96.10
2018-07-31T23:45:13.584Z,96.10
2018-07-31T23:47:41.260Z,96.30
2018-07-31T23:50:08.148Z,96.30
2018-07-31T23:52:35.961Z,96.30
2018-07-31T23:55:02.892Z,96.40
2018-07-31T23:57:30.564Z,96.20
2018-07-31T23:59:58.166Z,96.20
